Time;durP1;ratioP1;P1;durP2;ratioP2;P2;SDS_P1;SDS_P2;PMS_P1;PMS_P2;Temp;Humidity;BMP_temperature;BMP_pressure;BME280_temperature;BME280_humidity;BME280_pressure;Samples;Min_cycle;Max_cycle;Signal;HPM_P1;HPM_P2
2021/07/23 00:00:34;;;;;;;4.15;2.88;;;16.30;99.90;;;;;;4956172;28;20217;-70
2021/07/23 00:02:59;;;;;;;3.90;2.97;;;16.30;99.90;;;;;;4956517;28;20287;-69
2021/07/23 00:05:25;;;;;;;3.58;3.05;;;16.30;99.90;;;;;;4959628;28;20636;-68
2021/07/23 00:07:51;;;;;;;3.20;2.60;;;16.30;99.90;;;;;;4957384;28;20208;-69
2021/07/23 00:10:16;;;;;;;3.28;2.40;;;16.20;99.90;;;;;;4957754;28;20212;-69
2021/07/23 00:12:42;;;;;;;3.60;2.85;;;16.10;99.90;;;;;;4956232;28;20223;-70
2021/07/23 00:15:09;;;;;;;3.00;2.67;;;16.00;99.90;;;;;;4957098;28;20284;-70
2021/07/23 00:17:35;;;;;;;3.85;2.47;;;15.90;99.90;;;;;;4956289;28;20177;-69
2021/07/23 00:20:00;;;;;;;3.13;2.83;;;15.90;99.90;;;;;;4958855;28;20241;-68
2021/07/23 00:22:26;;;;;;;3.15;2.47;;;15.80;99.90;;;;;;4958545;28;20208;-69
2021/07/23 00:24:52;;;;;;;2.67;2.38;;;15.60;99.90;;;;;;4964342;28;20185;-69
2021/07/23 00:27:17;;;;;;;3.40;2.65;;;15.60;99.90;;;;;;4962814;28;20192;-69
2021/07/23 00:29:43;;;;;;;3.13;2.83;;;15.60;99.90;;;;;;4956942;28;20236;-70
2021/07/23 00:32:09;;;;;;;3.53;2.72;;;15.50;99.90;;;;;;4956863;28;20208;-69
2021/07/23 00:34:34;;;;;;;6.32;2.83;;;15.60;99.90;;;;;;4958299;28;20189;-68
2021/07/23 00:37:00;;;;;;;3.38;2.45;;;15.50;99.90;;;;;;4956329;28;20551;-69
2021/07/23 00:39:26;;;;;;;3.25;2.60;;;15.60;99.90;;;;;;4958477;28;20696;-69
2021/07/23 00:41:51;;;;;;;3.25;2.80;;;15.60;99.90;;;;;;4957379;28;20308;-69
2021/07/23 00:44:17;;;;;;;3.95;2.65;;;15.70;99.90;;;;;;4959934;28;20204;-68
2021/07/23 00:46:44;;;;;;;2.53;2.33;;;15.70;99.90;;;;;;4957800;28;20289;-69
2021/07/23 00:49:10;;;;;;;3.50;2.60;;;15.70;99.90;;;;;;4959135;28;20201;-69
2021/07/23 00:51:36;;;;;;;2.75;2.17;;;15.70;99.90;;;;;;4957238;28;20180;-68
2021/07/23 00:54:04;;;;;;;3.30;2.20;;;15.70;99.90;;;;;;4963971;28;20660;-69
2021/07/23 00:56:31;;;;;;;4.25;2.47;;;15.60;99.90;;;;;;4957466;28;20633;-70
2021/07/23 00:58:59;;;;;;;3.25;2.03;;;15.50;99.90;;;;;;4957082;28;20700;-70
2021/07/23 01:01:25;;;;;;;2.20;2.00;;;15.50;99.90;;;;;;4956765;28;20536;-70
2021/07/23 01:03:51;;;;;;;3.30;2.35;;;15.40;99.90;;;;;;4957330;28;20196;-70
2021/07/23 01:06:17;;;;;;;2.92;2.55;;;15.30;99.90;;;;;;4958444;28;20236;-70
2021/07/23 01:08:43;;;;;;;2.95;2.15;;;15.30;99.90;;;;;;4960351;28;20204;-71
2021/07/23 01:11:12;;;;;;;3.08;2.30;;;15.20;99.90;;;;;;4956221;28;20202;-69
2021/07/23 01:13:40;;;;;;;2.53;1.98;;;15.20;99.90;;;;;;4956496;28;20190;-68
2021/07/23 01:16:06;;;;;;;3.35;2.42;;;15.20;99.90;;;;;;4959984;28;20228;-69
2021/07/23 01:18:31;;;;;;;5.05;2.30;;;15.10;99.90;;;;;;4958283;28;20189;-69
2021/07/23 01:20:58;;;;;;;3.40;2.25;;;15.00;99.90;;;;;;4958245;28;20213;-68
2021/07/23 01:23:35;;;;;;;3.15;2.10;;;15.00;99.90;;;;;;4960525;28;20193;-69
2021/07/23 01:26:08;;;;;;;2.55;2.20;;;15.00;99.90;;;;;;4960611;28;20200;-70
2021/07/23 01:28:35;;;;;;;2.08;1.73;;;15.00;99.90;;;;;;4967308;28;20217;-68
2021/07/23 01:31:05;;;;;;;2.53;1.98;;;15.00;99.90;;;;;;4958430;28;20438;-69
2021/07/23 01:33:31;;;;;;;2.40;1.88;;;15.00;99.90;;;;;;4960189;28;20213;-68
2021/07/23 01:35:58;;;;;;;3.10;2.17;;;15.00;99.90;;;;;;4965254;28;20668;-69
2021/07/23 01:38:28;;;;;;;2.15;1.90;;;14.90;99.90;;;;;;4958116;28;20942;-68
2021/07/23 01:40:54;;;;;;;3.30;2.55;;;15.00;99.90;;;;;;4956197;28;20649;-69
2021/07/23 01:43:22;;;;;;;2.13;1.90;;;14.90;99.90;;;;;;4956595;28;20218;-69
2021/07/23 01:45:48;;;;;;;3.65;2.10;;;15.00;99.90;;;;;;4961183;28;20193;-70
2021/07/23 01:48:13;;;;;;;2.63;2.00;;;14.90;99.90;;;;;;4958800;28;20221;-69
2021/07/23 01:50:39;;;;;;;2.00;1.65;;;14.90;99.90;;;;;;4963826;28;20201;-71
2021/07/23 01:53:04;;;;;;;3.85;2.05;;;14.90;99.90;;;;;;4960595;28;20198;-70
2021/07/23 01:55:30;;;;;;;2.08;1.88;;;14.80;99.90;;;;;;4953090;28;20346;-70
2021/07/23 01:57:56;;;;;;;2.28;2.05;;;14.80;99.90;;;;;;4956674;28;20170;-70
2021/07/23 02:00:22;;;;;;;4.40;2.42;;;14.80;99.90;;;;;;4964060;28;20657;-71
2021/07/23 02:02:48;;;;;;;1.92;1.73;;;14.70;99.90;;;;;;4956056;28;20194;-69
2021/07/23 02:05:13;;;;;;;2.85;2.13;;;14.70;99.90;;;;;;4957254;28;20244;-68
2021/07/23 02:07:39;;;;;;;2.00;1.77;;;14.60;99.90;;;;;;4956999;28;20190;-69
2021/07/23 02:10:06;;;;;;;2.25;1.92;;;14.60;99.90;;;;;;4959567;28;20205;-70
2021/07/23 02:12:32;;;;;;;1.92;1.73;;;14.60;99.90;;;;;;4952941;28;20287;-69
2021/07/23 02:14:57;;;;;;;1.92;1.80;;;14.60;99.90;;;;;;4953992;28;20269;-69
2021/07/23 02:17:23;;;;;;;2.13;1.92;;;14.60;99.90;;;;;;4958289;28;20648;-69
2021/07/23 02:19:49;;;;;;;2.05;1.85;;;14.60;99.90;;;;;;4960856;28;20252;-69
2021/07/23 02:22:15;;;;;;;2.85;2.50;;;14.60;99.90;;;;;;4960236;28;20247;-69
2021/07/23 02:24:41;;;;;;;3.17;2.50;;;14.70;99.90;;;;;;4966085;28;20628;-70
2021/07/23 02:27:06;;;;;;;2.78;2.58;;;14.70;99.90;;;;;;4959049;28;20240;-70
2021/07/23 02:29:32;;;;;;;2.75;2.05;;;14.70;99.90;;;;;;4954625;28;20232;-70
2021/07/23 02:31:58;;;;;;;3.35;2.45;;;14.60;99.90;;;;;;4960858;28;20182;-70
2021/07/23 02:34:23;;;;;;;2.97;2.50;;;14.50;99.90;;;;;;4958380;28;20417;-69
2021/07/23 02:36:49;;;;;;;2.53;2.33;;;14.50;99.90;;;;;;4956949;28;20181;-69
2021/07/23 02:39:15;;;;;;;2.85;2.08;;;14.50;99.90;;;;;;4956475;28;20194;-69
2021/07/23 02:41:40;;;;;;;2.83;2.47;;;14.40;99.90;;;;;;4962897;28;20181;-68
2021/07/23 02:44:06;;;;;;;3.83;2.58;;;14.30;99.90;;;;;;4956576;28;20638;-69
2021/07/23 02:46:32;;;;;;;4.32;3.00;;;14.30;99.90;;;;;;4954406;28;20209;-69
2021/07/23 02:48:57;;;;;;;3.35;2.70;;;14.40;99.90;;;;;;4960479;28;20299;-70
2021/07/23 02:51:23;;;;;;;2.75;2.38;;;14.30;99.90;;;;;;4954048;28;20188;-70
2021/07/23 02:53:49;;;;;;;2.55;2.35;;;14.30;99.90;;;;;;4956056;28;20181;-68
2021/07/23 02:56:14;;;;;;;4.47;2.67;;;14.20;99.90;;;;;;4959111;28;20701;-68
2021/07/23 02:58:42;;;;;;;2.83;2.55;;;14.20;99.90;;;;;;4959884;28;20235;-69
2021/07/23 03:01:08;;;;;;;3.60;2.42;;;14.20;99.90;;;;;;4959531;28;20291;-70
2021/07/23 03:03:34;;;;;;;5.00;2.72;;;14.20;99.90;;;;;;4955994;28;20189;-69
2021/07/23 03:06:00;;;;;;;4.05;2.95;;;14.10;99.90;;;;;;4961333;28;20177;-69
2021/07/23 03:08:26;;;;;;;3.08;2.53;;;14.00;99.90;;;;;;4958252;28;21253;-69
2021/07/23 03:10:52;;;;;;;3.70;2.85;;;14.00;99.90;;;;;;4961754;28;20232;-68
2021/07/23 03:13:18;;;;;;;2.47;2.20;;;14.00;99.90;;;;;;4955850;28;20752;-69
2021/07/23 03:15:43;;;;;;;2.58;2.38;;;14.00;99.90;;;;;;4953437;28;20178;-68
2021/07/23 03:18:09;;;;;;;2.90;2.63;;;14.00;99.90;;;;;;4961635;28;20268;-69
2021/07/23 03:20:38;;;;;;;3.17;2.42;;;14.00;99.90;;;;;;4962697;28;20299;-69
2021/07/23 03:23:06;;;;;;;3.38;2.55;;;14.10;99.90;;;;;;4959383;28;20628;-69
2021/07/23 03:25:32;;;;;;;2.70;2.33;;;14.00;99.90;;;;;;4963746;28;20795;-69
2021/07/23 03:27:58;;;;;;;2.28;1.85;;;14.00;99.90;;;;;;4964226;28;20307;-68
2021/07/23 03:30:25;;;;;;;2.30;2.08;;;14.00;99.90;;;;;;4961343;28;20272;-69
2021/07/23 03:32:50;;;;;;;2.47;2.28;;;14.10;99.90;;;;;;4959401;28;20255;-69
2021/07/23 03:35:16;;;;;;;3.83;2.67;;;14.20;99.90;;;;;;4957711;28;20621;-67
2021/07/23 03:37:41;;;;;;;4.55;2.90;;;14.20;99.90;;;;;;4959071;28;20178;-68
2021/07/23 03:40:08;;;;;;;3.35;2.75;;;14.10;99.90;;;;;;4960284;28;20196;-68
2021/07/23 03:42:34;;;;;;;2.50;2.28;;;14.20;99.90;;;;;;4955438;28;20185;-69
2021/07/23 03:44:59;;;;;;;2.00;1.83;;;14.10;99.90;;;;;;4958738;28;20240;-68
2021/07/23 03:47:25;;;;;;;2.70;2.08;;;14.10;99.90;;;;;;4957004;28;20192;-69
2021/07/23 03:49:51;;;;;;;2.45;2.25;;;13.90;99.90;;;;;;4964871;28;20786;-68
2021/07/23 03:52:17;;;;;;;3.22;2.47;;;14.00;99.90;;;;;;4959277;28;20264;-69
2021/07/23 03:54:43;;;;;;;2.95;2.63;;;14.10;99.90;;;;;;4957953;28;20688;-69
2021/07/23 03:57:09;;;;;;;2.58;2.38;;;14.10;99.90;;;;;;4960329;28;20197;-70
2021/07/23 03:59:35;;;;;;;2.53;2.30;;;14.30;99.90;;;;;;4959416;28;20240;-69
2021/07/23 04:02:01;;;;;;;2.78;2.42;;;14.30;99.90;;;;;;4956336;28;20248;-69
2021/07/23 04:04:27;;;;;;;4.15;2.78;;;14.30;99.90;;;;;;4955345;28;20221;-68
2021/07/23 04:07:00;;;;;;;3.42;2.65;;;14.20;99.90;;;;;;4958922;28;20184;-69
2021/07/23 04:09:29;;;;;;;2.55;2.35;;;14.30;99.90;;;;;;4955371;28;20216;-68
2021/07/23 04:11:55;;;;;;;3.63;2.58;;;14.30;99.90;;;;;;4964147;28;20537;-68
2021/07/23 04:14:22;;;;;;;1.98;1.80;;;14.30;99.90;;;;;;4965285;28;20227;-68
2021/07/23 04:16:48;;;;;;;2.88;2.13;;;14.30;99.90;;;;;;4959664;28;20268;-68
2021/07/23 04:19:14;;;;;;;2.80;2.47;;;14.40;99.90;;;;;;4956427;28;20653;-69
2021/07/23 04:21:42;;;;;;;3.22;2.47;;;14.50;99.90;;;;;;4956431;28;20223;-68
2021/07/23 04:24:07;;;;;;;3.42;2.50;;;14.50;99.90;;;;;;4959961;28;20185;-69
2021/07/23 04:26:35;;;;;;;1.90;1.73;;;14.60;99.90;;;;;;4964658;28;20189;-69
2021/07/23 04:29:01;;;;;;;2.58;2.00;;;14.60;99.90;;;;;;4958868;28;20208;-68
2021/07/23 04:31:27;;;;;;;2.85;2.05;;;14.70;99.90;;;;;;4956598;28;20195;-68
2021/07/23 04:33:55;;;;;;;3.70;1.92;;;14.70;99.90;;;;;;4958032;28;20189;-69
2021/07/23 04:36:21;;;;;;;2.78;2.17;;;14.70;99.90;;;;;;4958054;28;20204;-69
2021/07/23 04:38:46;;;;;;;3.70;2.13;;;14.80;99.90;;;;;;4956943;28;20228;-68
2021/07/23 04:41:12;;;;;;;2.35;2.05;;;14.80;99.90;;;;;;4958639;28;20205;-68
2021/07/23 04:43:41;;;;;;;2.45;2.10;;;15.20;99.90;;;;;;4956558;28;20199;-69
2021/07/23 04:46:08;;;;;;;2.63;2.42;;;15.60;99.90;;;;;;4958950;28;20184;-68
2021/07/23 04:48:34;;;;;;;2.53;2.22;;;15.90;99.90;;;;;;4958998;28;20207;-69
2021/07/23 04:51:06;;;;;;;1.88;1.77;;;16.20;99.90;;;;;;4955585;28;20193;-69
2021/07/23 04:53:31;;;;;;;4.60;1.88;;;16.60;99.90;;;;;;4956070;28;20583;-68
2021/07/23 04:56:00;;;;;;;4.75;2.15;;;16.70;99.90;;;;;;4958763;28;20178;-68
2021/07/23 04:58:26;;;;;;;2.47;2.28;;;16.70;99.90;;;;;;4960608;28;20899;-69
2021/07/23 05:00:53;;;;;;;2.15;1.95;;;16.70;99.90;;;;;;4958463;28;20598;-69
2021/07/23 05:03:24;;;;;;;2.55;1.80;;;17.00;99.90;;;;;;4962223;28;20176;-69
2021/07/23 05:05:50;;;;;;;2.97;2.10;;;17.10;99.90;;;;;;4958586;28;20193;-69
2021/07/23 05:08:16;;;;;;;2.08;1.85;;;17.60;99.90;;;;;;4959439;28;20731;-70
2021/07/23 05:10:43;;;;;;;2.17;1.85;;;17.90;99.90;;;;;;4956102;28;20223;-70
2021/07/23 05:13:09;;;;;;;3.60;1.63;;;18.20;99.90;;;;;;4955669;28;20630;-69
2021/07/23 05:15:38;;;;;;;2.92;2.10;;;18.80;99.90;;;;;;4956450;28;20181;-70
2021/07/23 05:18:04;;;;;;;4.60;1.88;;;19.10;99.90;;;;;;4958717;28;20192;-69
2021/07/23 05:20:30;;;;;;;2.00;1.80;;;19.30;99.90;;;;;;4961844;28;20648;-69
2021/07/23 05:22:56;;;;;;;1.45;1.35;;;19.70;99.90;;;;;;4963569;28;20199;-68
2021/07/23 05:25:22;;;;;;;2.70;1.95;;;20.10;99.90;;;;;;4959467;28;20197;-70
2021/07/23 05:27:47;;;;;;;1.65;1.40;;;20.40;99.90;;;;;;4956677;28;20189;-70
2021/07/23 05:30:13;;;;;;;1.52;1.40;;;20.60;99.90;;;;;;4959044;28;20259;-70
2021/07/23 05:32:39;;;;;;;2.20;1.73;;;20.80;99.90;;;;;;4960830;28;20278;-70
2021/07/23 05:35:05;;;;;;;1.40;1.30;;;21.20;99.90;;;;;;4955320;28;20613;-69
2021/07/23 05:37:34;;;;;;;1.65;1.55;;;21.10;99.90;;;;;;4961156;28;20185;-69
2021/07/23 05:39:59;;;;;;;1.85;1.75;;;21.30;99.90;;;;;;4959110;28;20205;-69
2021/07/23 05:42:25;;;;;;;2.35;1.77;;;21.50;99.90;;;;;;4960091;28;20193;-69
2021/07/23 05:44:51;;;;;;;2.25;1.60;;;21.60;99.90;;;;;;4961492;28;20185;-70
2021/07/23 05:47:18;;;;;;;1.67;1.40;;;21.80;99.90;;;;;;4959485;28;20218;-70
2021/07/23 05:49:44;;;;;;;1.77;1.60;;;21.90;99.90;;;;;;4959284;28;20220;-70
2021/07/23 05:52:10;;;;;;;2.92;1.38;;;22.20;99.90;;;;;;4957937;28;20189;-69
2021/07/23 05:54:36;;;;;;;1.50;1.40;;;22.20;99.90;;;;;;4965632;28;20197;-69
2021/07/23 05:57:02;;;;;;;1.35;1.25;;;22.60;99.90;;;;;;4961544;28;20738;-69
2021/07/23 05:59:27;;;;;;;4.45;2.17;;;22.60;99.90;;;;;;4962643;28;20287;-69
2021/07/23 06:01:53;;;;;;;1.33;1.23;;;22.30;99.90;;;;;;4961696;28;20728;-69
2021/07/23 06:04:19;;;;;;;2.13;1.58;;;22.20;99.90;;;;;;4957636;28;20185;-71
2021/07/23 06:06:44;;;;;;;3.15;1.60;;;22.50;99.90;;;;;;4957858;28;20196;-70
2021/07/23 06:09:10;;;;;;;1.77;1.63;;;22.70;99.90;;;;;;4964057;28;20210;-70
2021/07/23 06:11:38;;;;;;;1.30;1.20;;;23.00;99.90;;;;;;4954021;28;20188;-69
2021/07/23 06:14:05;;;;;;;1.65;1.30;;;22.90;99.90;;;;;;4956507;28;20264;-69
2021/07/23 06:16:30;;;;;;;1.98;1.50;;;23.20;99.90;;;;;;4955106;28;20217;-69
2021/07/23 06:18:58;;;;;;;1.48;1.38;;;23.10;99.90;;;;;;4963161;28;20211;-70
2021/07/23 06:21:24;;;;;;;1.50;1.40;;;23.00;99.90;;;;;;4960418;28;20965;-71
2021/07/23 06:23:50;;;;;;;1.60;1.50;;;23.00;99.90;;;;;;4952347;28;20181;-70
2021/07/23 06:26:16;;;;;;;1.35;1.20;;;22.90;99.90;;;;;;4960138;28;20772;-69
2021/07/23 06:28:41;;;;;;;2.20;1.50;;;23.00;99.90;;;;;;4953628;28;20213;-70
2021/07/23 06:31:07;;;;;;;1.40;1.30;;;22.70;99.90;;;;;;4953817;28;20959;-69
2021/07/23 06:33:33;;;;;;;1.58;1.48;;;23.00;99.90;;;;;;4952000;28;20197;-70
2021/07/23 06:36:00;;;;;;;2.13;1.38;;;23.20;99.90;;;;;;4961042;28;20260;-69
2021/07/23 06:38:26;;;;;;;1.73;1.63;;;22.80;99.90;;;;;;4953474;28;20276;-69
2021/07/23 06:40:53;;;;;;;1.33;1.23;;;22.50;99.90;;;;;;4955533;28;20609;-69
2021/07/23 06:43:19;;;;;;;1.65;1.50;;;22.40;99.90;;;;;;4956803;28;20178;-69
2021/07/23 06:45:55;;;;;;;1.23;1.13;;;21.80;99.90;;;;;;4957154;28;20181;-69
2021/07/23 06:48:21;;;;;;;1.35;1.25;;;21.70;99.90;;;;;;4958405;28;20221;-68
2021/07/23 06:50:49;;;;;;;3.05;1.27;;;21.50;99.90;;;;;;4954008;28;20201;-69
2021/07/23 06:53:15;;;;;;;1.60;1.38;;;21.10;99.90;;;;;;4955994;28;20190;-69
2021/07/23 06:55:41;;;;;;;3.25;1.50;;;21.00;99.90;;;;;;4961098;28;20181;-67
2021/07/23 06:58:06;;;;;;;2.40;1.33;;;20.80;99.90;;;;;;4949056;28;20293;-69
2021/07/23 07:00:32;;;;;;;1.85;1.38;;;20.70;99.90;;;;;;4960015;28;20213;-68
2021/07/23 07:02:57;;;;;;;2.55;1.85;;;20.60;99.90;;;;;;4957350;28;20194;-68
2021/07/23 07:05:24;;;;;;;2.55;1.60;;;20.50;99.90;;;;;;4962917;28;20200;-67
2021/07/23 07:07:50;;;;;;;1.50;1.40;;;20.40;99.90;;;;;;4957582;28;20275;-69
2021/07/23 07:10:16;;;;;;;2.63;1.30;;;20.40;99.90;;;;;;4960454;28;20347;-68
2021/07/23 07:12:41;;;;;;;2.15;1.67;;;20.40;99.90;;;;;;4957065;28;20177;-70
2021/07/23 07:15:07;;;;;;;4.68;1.98;;;20.40;99.90;;;;;;4962751;28;20188;-68
2021/07/23 07:17:33;;;;;;;2.30;1.77;;;20.30;99.90;;;;;;4963966;28;20343;-68
2021/07/23 07:19:59;;;;;;;1.40;1.20;;;20.10;99.90;;;;;;4955133;28;20763;-69
2021/07/23 07:22:25;;;;;;;1.38;1.05;;;20.40;99.90;;;;;;4957303;28;20177;-68
2021/07/23 07:24:51;;;;;;;1.17;1.08;;;20.70;99.90;;;;;;4955490;28;20217;-68
2021/07/23 07:27:17;;;;;;;1.27;1.17;;;20.50;99.90;;;;;;4959495;28;20267;-68
2021/07/23 07:29:43;;;;;;;2.65;1.13;;;20.60;99.90;;;;;;4955852;28;20676;-68
2021/07/23 07:32:09;;;;;;;2.67;1.33;;;20.80;99.90;;;;;;4958030;28;20193;-67
2021/07/23 07:34:35;;;;;;;1.73;1.40;;;21.00;99.90;;;;;;4959241;28;20822;-68
2021/07/23 07:37:01;;;;;;;2.33;1.13;;;21.20;99.90;;;;;;4962072;28;20190;-69
2021/07/23 07:39:28;;;;;;;1.90;1.30;;;21.00;99.90;;;;;;4957275;28;20243;-68
2021/07/23 07:41:53;;;;;;;1.10;0.98;;;21.00;99.90;;;;;;4952751;28;20225;-68
2021/07/23 07:44:19;;;;;;;2.05;1.30;;;21.20;99.90;;;;;;4949926;28;20638;-68
2021/07/23 07:46:45;;;;;;;1.30;1.20;;;21.10;99.90;;;;;;4957392;28;20185;-68
2021/07/23 07:49:10;;;;;;;1.75;1.33;;;21.00;99.90;;;;;;4956760;28;20216;-68
2021/07/23 07:51:36;;;;;;;1.48;1.10;;;21.10;99.90;;;;;;4953776;28;20260;-68
2021/07/23 07:54:01;;;;;;;1.33;1.20;;;21.10;99.90;;;;;;4961648;28;20184;-68
2021/07/23 07:56:27;;;;;;;2.55;1.27;;;21.10;99.90;;;;;;4953779;28;20189;-67
2021/07/23 07:58:53;;;;;;;1.80;1.70;;;21.20;99.90;;;;;;4956685;28;20170;-68
2021/07/23 08:01:19;;;;;;;1.45;1.35;;;21.20;99.90;;;;;;4951084;28;20248;-68
2021/07/23 08:03:44;;;;;;;1.50;1.40;;;21.00;99.90;;;;;;4959309;28;20189;-68
2021/07/23 08:06:20;;;;;;;1.95;1.25;;;21.00;99.90;;;;;;4957230;28;20653;-68
2021/07/23 08:08:46;;;;;;;1.67;1.23;;;21.10;99.90;;;;;;4957620;28;20196;-68
2021/07/23 08:11:12;;;;;;;1.60;1.25;;;21.60;99.90;;;;;;4951452;28;20669;-68
2021/07/23 08:13:38;;;;;;;1.55;1.30;;;21.60;99.90;;;;;;4951991;28;20501;-68
2021/07/23 08:16:05;;;;;;;1.98;1.30;;;21.60;99.90;;;;;;4962835;28;20172;-68
2021/07/23 08:18:30;;;;;;;2.47;1.80;;;21.60;99.90;;;;;;4962259;28;20184;-68
2021/07/23 08:20:56;;;;;;;2.20;1.60;;;21.60;99.90;;;;;;4955551;28;20210;-68
2021/07/23 08:23:22;;;;;;;2.13;1.65;;;21.60;99.90;;;;;;4955409;28;20251;-68
2021/07/23 08:25:48;;;;;;;1.50;1.30;;;21.70;99.90;;;;;;4952896;28;20415;-68
2021/07/23 08:28:15;;;;;;;1.70;1.50;;;22.00;99.90;;;;;;4958762;28;20255;-68
2021/07/23 08:30:41;;;;;;;1.90;1.40;;;22.00;99.90;;;;;;4953786;28;20205;-68
2021/07/23 08:33:06;;;;;;;1.35;1.25;;;22.00;99.90;;;;;;4954720;28;20540;-69
2021/07/23 08:35:32;;;;;;;2.47;1.40;;;22.00;99.90;;;;;;4955079;28;20216;-67
2021/07/23 08:37:58;;;;;;;1.50;1.40;;;22.00;99.90;;;;;;4963841;28;20191;-68
2021/07/23 08:40:23;;;;;;;2.42;1.40;;;22.10;99.90;;;;;;4956068;28;20304;-68
2021/07/23 08:42:49;;;;;;;2.53;1.40;;;21.90;99.90;;;;;;4949997;28;20559;-68
2021/07/23 08:45:15;;;;;;;1.50;1.13;;;21.90;99.90;;;;;;4963643;28;20633;-68
2021/07/23 08:47:41;;;;;;;2.30;1.33;;;21.90;99.90;;;;;;4961599;28;20189;-68
2021/07/23 08:50:07;;;;;;;1.20;1.10;;;22.00;99.90;;;;;;4955237;28;20681;-68
2021/07/23 08:52:46;;;;;;;2.30;1.70;;;22.40;99.90;;;;;;4958178;28;20181;-68
2021/07/23 08:55:16;;;;;;;1.90;1.70;;;22.80;99.90;;;;;;4955876;28;20184;-68
2021/07/23 08:57:43;;;;;;;1.63;1.52;;;22.80;99.90;;;;;;4956255;28;20411;-68
2021/07/23 09:00:11;;;;;;;1.52;1.20;;;22.90;99.90;;;;;;4950876;28;20607;-67
2021/07/23 09:02:57;;;;;;;1.70;1.60;;;22.70;99.90;;;;;;4961451;28;20253;-68
2021/07/23 09:05:28;;;;;;;3.00;1.83;;;22.50;99.90;;;;;;4954468;28;20523;-68
2021/07/23 09:07:57;;;;;;;2.53;1.70;;;22.50;99.90;;;;;;4956488;28;20199;-68
2021/07/23 09:10:25;;;;;;;2.28;1.65;;;22.50;99.90;;;;;;4957715;28;20205;-68
2021/07/23 09:12:52;;;;;;;2.17;1.63;;;22.60;99.90;;;;;;4955829;28;20235;-69
2021/07/23 09:15:22;;;;;;;2.40;1.63;;;22.50;99.90;;;;;;4955178;28;20569;-68
2021/07/23 09:17:49;;;;;;;2.30;1.30;;;22.60;99.90;;;;;;4959469;28;20217;-68
2021/07/23 09:20:15;;;;;;;1.88;1.77;;;22.60;99.90;;;;;;4950824;28;20591;-68
2021/07/23 09:22:47;;;;;;;1.60;1.42;;;22.20;99.90;;;;;;4957185;28;20184;-68
2021/07/23 09:25:14;;;;;;;1.85;1.70;;;22.50;99.90;;;;;;4951149;28;20265;-68
2021/07/23 09:27:41;;;;;;;2.08;1.45;;;22.90;99.90;;;;;;4953215;28;20625;-68
2021/07/23 09:30:07;;;;;;;2.47;1.40;;;23.10;99.90;;;;;;4952120;28;20218;-70
2021/07/23 09:32:34;;;;;;;1.85;1.55;;;23.40;99.90;;;;;;4954050;28;20216;-68
2021/07/23 09:35:13;;;;;;;1.98;1.70;;;23.60;99.90;;;;;;4951775;28;20706;-68
2021/07/23 09:38:10;;;;;;;1.63;1.50;;;23.70;99.90;;;;;;4956452;28;20212;-68
2021/07/23 09:40:44;;;;;;;3.35;1.50;;;23.80;99.90;;;;;;4951111;28;20680;-68
2021/07/23 09:43:10;;;;;;;2.22;1.80;;;23.70;99.90;;;;;;4954590;28;20182;-68
2021/07/23 09:45:36;;;;;;;1.50;1.23;;;23.80;99.90;;;;;;4954583;28;20177;-68
2021/07/23 09:48:11;;;;;;;1.40;1.30;;;23.90;99.90;;;;;;4954371;28;20221;-68
2021/07/23 09:50:48;;;;;;;2.20;1.75;;;23.90;99.90;;;;;;4958230;28;20212;-68
2021/07/23 09:53:16;;;;;;;1.63;1.50;;;24.20;99.90;;;;;;4958621;28;20181;-69
2021/07/23 09:55:48;;;;;;;2.38;1.90;;;24.40;99.90;;;;;;4951400;28;20181;-68
2021/07/23 09:58:21;;;;;;;2.33;1.60;;;24.30;99.90;;;;;;4954244;28;20271;-69
2021/07/23 10:00:53;;;;;;;3.85;2.00;;;23.70;99.90;;;;;;4963415;28;20212;-68
2021/07/23 10:03:22;;;;;;;1.65;1.40;;;23.80;99.90;;;;;;4959005;28;20189;-69
2021/07/23 10:05:53;;;;;;;2.53;1.58;;;23.70;99.90;;;;;;4958186;28;20232;-69
2021/07/23 10:08:22;;;;;;;3.42;1.77;;;23.90;99.90;;;;;;4956186;28;20213;-68
2021/07/23 10:10:50;;;;;;;2.00;1.77;;;24.10;99.90;;;;;;4961613;28;20201;-68
2021/07/23 10:13:19;;;;;;;1.70;1.55;;;24.30;99.90;;;;;;4954621;28;20185;-69
2021/07/23 10:15:45;;;;;;;1.50;1.40;;;24.20;99.90;;;;;;4959678;28;20265;-68
2021/07/23 10:18:11;;;;;;;2.35;1.55;;;23.90;99.90;;;;;;4953272;28;20270;-68
2021/07/23 10:20:39;;;;;;;1.80;1.48;;;23.70;99.90;;;;;;4956304;28;20305;-68
2021/07/23 10:23:04;;;;;;;1.45;1.35;;;23.60;99.90;;;;;;4957270;28;20181;-68
2021/07/23 10:25:34;;;;;;;1.65;1.52;;;23.50;99.90;;;;;;4959211;28;20191;-69
2021/07/23 10:28:00;;;;;;;2.17;1.88;;;23.10;99.90;;;;;;4957301;28;20208;-68
2021/07/23 10:30:36;;;;;;;1.92;1.77;;;23.00;99.90;;;;;;4952958;28;20257;-68
2021/07/23 10:33:04;;;;;;;1.30;1.13;;;23.40;99.90;;;;;;4956852;28;20184;-67
2021/07/23 10:35:32;;;;;;;2.17;1.50;;;23.60;99.90;;;;;;4954934;28;20531;-68
2021/07/23 10:37:58;;;;;;;1.85;1.30;;;23.90;99.90;;;;;;4956666;28;20736;-68
2021/07/23 10:40:37;;;;;;;1.67;1.45;;;23.90;99.90;;;;;;4952598;28;20210;-68
2021/07/23 10:43:22;;;;;;;1.45;1.30;;;23.80;99.90;;;;;;4956545;28;20186;-68
2021/07/23 10:45:48;;;;;;;1.50;1.40;;;23.90;99.90;;;;;;4961145;28;20181;-68
2021/07/23 10:48:44;;;;;;;1.83;1.58;;;23.70;99.90;;;;;;4951771;28;20217;-68
2021/07/23 10:51:09;;;;;;;1.10;1.00;;;23.70;99.90;;;;;;4957459;28;20229;-68
2021/07/23 10:53:35;;;;;;;1.90;1.45;;;24.10;99.90;;;;;;4957609;28;20186;-68
2021/07/23 10:56:01;;;;;;;1.85;1.40;;;24.20;99.90;;;;;;4954617;28;20217;-68
2021/07/23 10:58:27;;;;;;;2.45;1.67;;;24.50;99.90;;;;;;4961558;28;20189;-68
2021/07/23 11:01:03;;;;;;;2.13;1.33;;;24.40;99.90;;;;;;4959382;28;20202;-68
2021/07/23 11:03:37;;;;;;;2.05;1.10;;;24.30;99.90;;;;;;4956414;28;20196;-68
2021/07/23 11:06:26;;;;;;;1.25;1.15;;;24.30;99.90;;;;;;4960434;28;20269;-68
2021/07/23 11:09:02;;;;;;;1.63;1.50;;;24.50;99.90;;;;;;4960558;28;20201;-68
2021/07/23 11:11:28;;;;;;;1.17;1.08;;;24.80;99.90;;;;;;4964308;28;20181;-68
2021/07/23 11:13:55;;;;;;;1.70;1.42;;;24.60;99.90;;;;;;4959831;28;20192;-68
2021/07/23 11:16:26;;;;;;;1.17;1.08;;;24.40;99.90;;;;;;4957635;28;20261;-69
2021/07/23 11:18:56;;;;;;;1.48;1.20;;;24.40;99.90;;;;;;4957615;28;20233;-68
2021/07/23 11:21:23;;;;;;;2.13;0.98;;;24.40;99.90;;;;;;4958769;28;20212;-67
2021/07/23 11:23:49;;;;;;;1.83;1.00;;;24.10;99.90;;;;;;4958575;28;20173;-67
2021/07/23 11:26:25;;;;;;;1.27;1.17;;;24.10;99.90;;;;;;4957287;28;20608;-67
2021/07/23 11:28:53;;;;;;;1.38;1.00;;;24.00;99.90;;;;;;4954681;28;20209;-68
2021/07/23 11:31:39;;;;;;;1.10;1.00;;;24.20;99.90;;;;;;4947105;28;20688;-66
2021/07/23 11:34:25;;;;;;;1.00;0.90;;;24.20;99.90;;;;;;4952139;28;20208;-67
2021/07/23 11:36:52;;;;;;;1.77;1.30;;;24.60;99.90;;;;;;4959143;28;20180;-68
2021/07/23 11:39:23;;;;;;;2.47;1.30;;;24.80;99.90;;;;;;4957872;28;20279;-68
2021/07/23 11:42:00;;;;;;;1.17;1.08;;;24.70;99.90;;;;;;4956030;28;20533;-68
2021/07/23 11:44:25;;;;;;;2.05;1.40;;;25.00;99.90;;;;;;4951948;28;20178;-68
2021/07/23 11:46:51;;;;;;;2.17;1.50;;;24.80;99.90;;;;;;4957931;28;20301;-68
2021/07/23 11:49:17;;;;;;;2.30;1.55;;;24.70;99.90;;;;;;4956228;28;20228;-67
2021/07/23 11:51:44;;;;;;;1.48;1.02;;;24.50;99.90;;;;;;4953867;28;20261;-68
2021/07/23 11:54:11;;;;;;;2.45;1.65;;;24.60;99.90;;;;;;4954763;28;20170;-68
2021/07/23 11:56:37;;;;;;;1.35;1.02;;;24.60;99.90;;;;;;4952438;28;20177;-67
2021/07/23 11:59:04;;;;;;;1.50;1.00;;;24.60;99.90;;;;;;4957150;28;20220;-67
2021/07/23 12:01:37;;;;;;;1.48;1.10;;;24.70;99.90;;;;;;4955699;28;20191;-67
2021/07/23 12:04:04;;;;;;;1.63;1.33;;;24.70;99.90;;;;;;4951585;28;20185;-67
2021/07/23 12:06:30;;;;;;;2.60;1.13;;;24.70;99.90;;;;;;4956824;28;20197;-67
2021/07/23 12:08:58;;;;;;;1.15;1.00;;;24.70;99.90;;;;;;4955752;28;20229;-67
2021/07/23 12:11:24;;;;;;;1.42;1.23;;;24.80;99.90;;;;;;4949923;28;20189;-67
2021/07/23 12:13:51;;;;;;;2.58;1.40;;;25.00;99.90;;;;;;4957392;28;20539;-68
2021/07/23 12:16:18;;;;;;;1.08;0.93;;;25.00;99.90;;;;;;4962992;28;20260;-66
2021/07/23 12:18:57;;;;;;;1.23;1.02;;;24.90;99.90;;;;;;4955753;28;20212;-68
2021/07/23 12:21:24;;;;;;;1.48;1.05;;;24.90;98.20;;;;;;4948427;28;20200;-68
2021/07/23 12:24:01;;;;;;;1.83;1.08;;;24.90;99.00;;;;;;4958041;28;20263;-66
2021/07/23 12:26:37;;;;;;;1.20;1.10;;;25.10;99.90;;;;;;4954116;28;20228;-68
2021/07/23 12:29:05;;;;;;;2.45;1.75;;;25.00;97.90;;;;;;4953805;28;20300;-67
2021/07/23 12:31:32;;;;;;;1.67;1.38;;;24.90;98.00;;;;;;4956484;28;20260;-68
2021/07/23 12:34:07;;;;;;;2.95;1.02;;;25.00;98.00;;;;;;4953906;28;20185;-67
2021/07/23 12:36:40;;;;;;;1.15;0.95;;;25.30;97.90;;;;;;4956799;28;20187;-67
2021/07/23 12:39:06;;;;;;;1.23;1.00;;;25.50;96.80;;;;;;4951427;28;20189;-67
2021/07/23 12:41:32;;;;;;;1.35;0.93;;;25.50;97.30;;;;;;4959149;28;20193;-66
2021/07/23 12:44:06;;;;;;;1.33;0.90;;;25.50;97.30;;;;;;4955122;28;20288;-68
2021/07/23 12:46:33;;;;;;;1.10;0.80;;;25.10;97.40;;;;;;4954712;28;20548;-67
2021/07/23 12:49:13;;;;;;;1.25;0.77;;;25.00;98.70;;;;;;4955056;28;20220;-67